LHA871 LFPG-EDDH
Flight info
| Callsign | LHA871 |
|---|---|
| Flight time | 1h 16m |
| Altitude | 41000 |
| Route | NURMO DCT CMB DCT VEKIN DCT ADUTO N873 SPY/N0451F410 N873 ANDIK M105 RIBSO |
| Aircraft | B737/M-SDE1E2FGIJ1RWYZE3/S |
Departure
| Time | 2026-04-21 20:09 |
|---|---|
| Airport | Charles de Gaulle International Airport (LFPG) |
Arrival
| Time | 2026-04-21 21:26 |
|---|---|
| Airport | Hamburg Helmut Schmidt Airport (EDDH) |
| Time | Latitude | Longitude | Altitude | Speed | Heading |
|---|---|---|---|---|---|
| 2026-04-21 18:58 | 49.00562 | 2.56662 | 353 ft | 0 kts | 177° |
| 2026-04-21 19:53 | 49.00576 | 2.56662 | 353 ft | 4 kts | 185° |
| 2026-04-21 19:54 | 49.00602 | 2.56671 | 359 ft | 4 kts | 212° |
| 2026-04-21 19:54 | 49.00619 | 2.56698 | 360 ft | 4 kts | 254° |
| 2026-04-21 19:54 | 49.00621 | 2.56709 | 353 ft | 0 kts | 264° |
| 2026-04-21 19:57 | 49.00616 | 2.56603 | 353 ft | 20 kts | 265° |
| 2026-04-21 19:57 | 49.00608 | 2.56449 | 358 ft | 14 kts | 265° |
| 2026-04-21 19:57 | 49.00601 | 2.56309 | 355 ft | 13 kts | 265° |
| 2026-04-21 19:57 | 49.00593 | 2.56174 | 361 ft | 13 kts | 264° |
| 2026-04-21 19:58 | 49.00576 | 2.56045 | 357 ft | 12 kts | 253° |
| 2026-04-21 19:58 | 49.00567 | 2.55918 | 358 ft | 12 kts | 275° |
| 2026-04-21 19:58 | 49.00565 | 2.55793 | 358 ft | 12 kts | 266° |
| 2026-04-21 19:58 | 49.00558 | 2.55654 | 358 ft | 15 kts | 265° |
| 2026-04-21 19:59 | 49.00549 | 2.55488 | 361 ft | 16 kts | 265° |
| 2026-04-21 19:59 | 49.00556 | 2.55328 | 359 ft | 15 kts | 294° |
| 2026-04-21 19:59 | 49.00639 | 2.55245 | 356 ft | 14 kts | 345° |
| 2026-04-21 19:59 | 49.00736 | 2.55203 | 356 ft | 15 kts | 343° |
| 2026-04-21 20:00 | 49.00845 | 2.55156 | 353 ft | 17 kts | 344° |
| 2026-04-21 20:00 | 49.00971 | 2.55102 | 357 ft | 20 kts | 343° |
| 2026-04-21 20:00 | 49.01114 | 2.55040 | 360 ft | 22 kts | 345° |
| 2026-04-21 20:00 | 49.01263 | 2.54975 | 357 ft | 22 kts | 344° |
| 2026-04-21 20:01 | 49.01411 | 2.54914 | 357 ft | 22 kts | 349° |
| 2026-04-21 20:01 | 49.01557 | 2.54890 | 356 ft | 20 kts | 355° |
| 2026-04-21 20:01 | 49.01678 | 2.54876 | 359 ft | 10 kts | 355° |
| 2026-04-21 20:01 | 49.01725 | 2.54866 | 358 ft | 7 kts | 348° |
| 2026-04-21 20:02 | 49.01768 | 2.54841 | 356 ft | 8 kts | 331° |
| 2026-04-21 20:02 | 49.01822 | 2.54752 | 358 ft | 15 kts | 297° |
| 2026-04-21 20:02 | 49.01834 | 2.54591 | 355 ft | 16 kts | 266° |
| 2026-04-21 20:02 | 49.01826 | 2.54430 | 356 ft | 16 kts | 265° |
| 2026-04-21 20:03 | 49.01817 | 2.54258 | 353 ft | 17 kts | 265° |
| 2026-04-21 20:03 | 49.01807 | 2.54064 | 361 ft | 19 kts | 265° |
| 2026-04-21 20:03 | 49.01795 | 2.53851 | 358 ft | 21 kts | 265° |
| 2026-04-21 20:03 | 49.01783 | 2.53619 | 360 ft | 23 kts | 265° |
| 2026-04-21 20:04 | 49.01770 | 2.53420 | 355 ft | 16 kts | 266° |
| 2026-04-21 20:04 | 49.01761 | 2.53223 | 354 ft | 21 kts | 265° |
| 2026-04-21 20:04 | 49.01755 | 2.53120 | 355 ft | 1 kts | 264° |
| 2026-04-21 20:04 | 49.01752 | 2.53066 | 360 ft | 9 kts | 265° |
| 2026-04-21 20:05 | 49.01745 | 2.52911 | 355 ft | 17 kts | 266° |
| 2026-04-21 20:05 | 49.01739 | 2.52812 | 360 ft | 5 kts | 264° |
| 2026-04-21 20:05 | 49.01737 | 2.52737 | 360 ft | 2 kts | 291° |
| 2026-04-21 20:05 | 49.01802 | 2.52664 | 353 ft | 19 kts | 294° |
| 2026-04-21 20:06 | 49.01808 | 2.52466 | 353 ft | 16 kts | 266° |
| 2026-04-21 20:06 | 49.01848 | 2.52363 | 360 ft | 12 kts | 345° |
| 2026-04-21 20:06 | 49.01930 | 2.52349 | 356 ft | 12 kts | 355° |
| 2026-04-21 20:06 | 49.02010 | 2.52339 | 360 ft | 9 kts | 353° |
| 2026-04-21 20:07 | 49.02020 | 2.52337 | 358 ft | 0 kts | 353° |
| 2026-04-21 20:08 | 49.02061 | 2.52340 | 353 ft | 18 kts | 4° |
| 2026-04-21 20:08 | 49.02126 | 2.52469 | 355 ft | 17 kts | 85° |
| 2026-04-21 20:08 | 49.02149 | 2.52898 | 361 ft | 78 kts | 85° |
| 2026-04-21 20:08 | 49.02215 | 2.54092 | 357 ft | 145 kts | 84° |
| 2026-04-21 20:09 | 49.02319 | 2.55795 | 795 ft | 162 kts | 84° |
| 2026-04-21 20:09 | 49.02429 | 2.57394 | 1940 ft | 144 kts | 84° |
| 2026-04-21 20:09 | 49.02497 | 2.58915 | 2694 ft | 150 kts | 84° |
| 2026-04-21 20:09 | 49.02580 | 2.60654 | 3038 ft | 180 kts | 83° |
| 2026-04-21 20:10 | 49.02687 | 2.62707 | 3294 ft | 210 kts | 83° |
| 2026-04-21 20:10 | 49.02815 | 2.65077 | 3723 ft | 235 kts | 83° |
| 2026-04-21 20:10 | 49.02943 | 2.67587 | 4525 ft | 240 kts | 84° |
| 2026-04-21 20:10 | 49.03069 | 2.70119 | 5430 ft | 244 kts | 84° |
| 2026-04-21 20:11 | 49.03272 | 2.72701 | 6338 ft | 249 kts | 73° |
| 2026-04-21 20:11 | 49.04174 | 2.74961 | 7261 ft | 256 kts | 46° |
| 2026-04-21 20:11 | 49.05693 | 2.76453 | 8160 ft | 268 kts | 23° |
| 2026-04-21 20:11 | 49.07565 | 2.76931 | 9124 ft | 278 kts | 5° |
| 2026-04-21 20:12 | 49.09521 | 2.76956 | 9850 ft | 284 kts | 2° |
| 2026-04-21 20:12 | 49.11480 | 2.76900 | 10160 ft | 282 kts | 1° |
| 2026-04-21 20:12 | 49.12815 | 2.76852 | 10172 ft | 286 kts | 1° |
| 2026-04-21 20:12 | 49.15444 | 2.76760 | 10180 ft | 284 kts | 1° |
| 2026-04-21 20:13 | 49.17413 | 2.76699 | 10181 ft | 283 kts | 1° |
| 2026-04-21 20:13 | 49.19377 | 2.76647 | 10190 ft | 281 kts | 1° |
| 2026-04-21 20:13 | 49.21327 | 2.76599 | 10190 ft | 280 kts | 2° |
| 2026-04-21 20:13 | 49.23278 | 2.76558 | 10182 ft | 281 kts | 2° |
| 2026-04-21 20:14 | 49.25230 | 2.76520 | 10184 ft | 281 kts | 2° |
| 2026-04-21 20:14 | 49.27186 | 2.76483 | 10185 ft | 281 kts | 2° |
| 2026-04-21 20:14 | 49.29170 | 2.76447 | 10238 ft | 293 kts | 2° |
| 2026-04-21 20:14 | 49.31309 | 2.76414 | 10490 ft | 321 kts | 1° |
| 2026-04-21 20:15 | 49.32812 | 2.76389 | 10909 ft | 330 kts | 1° |
| 2026-04-21 20:15 | 49.35918 | 2.76334 | 12108 ft | 335 kts | 0° |
| 2026-04-21 20:15 | 49.37500 | 2.76305 | 12748 ft | 337 kts | 0° |
| 2026-04-21 20:15 | 49.39820 | 2.76262 | 13663 ft | 340 kts | 360° |
| 2026-04-21 20:16 | 49.42193 | 2.76218 | 14559 ft | 343 kts | 360° |
| 2026-04-21 20:16 | 49.44594 | 2.76175 | 15446 ft | 347 kts | 359° |
| 2026-04-21 20:16 | 49.47018 | 2.76131 | 16339 ft | 350 kts | 359° |
| 2026-04-21 20:16 | 49.49458 | 2.76087 | 17248 ft | 352 kts | 359° |
| 2026-04-21 20:17 | 49.51920 | 2.76043 | 18090 ft | 356 kts | 358° |
| 2026-04-21 20:17 | 49.54405 | 2.76212 | 18896 ft | 360 kts | 7° |
| 2026-04-21 20:17 | 49.56850 | 2.77181 | 19683 ft | 366 kts | 17° |
| 2026-04-21 20:17 | 49.59258 | 2.78528 | 20429 ft | 370 kts | 17° |
| 2026-04-21 20:18 | 49.61684 | 2.79938 | 21143 ft | 374 kts | 17° |
| 2026-04-21 20:18 | 49.64129 | 2.81366 | 21841 ft | 378 kts | 17° |
| 2026-04-21 20:18 | 49.66600 | 2.82804 | 22535 ft | 381 kts | 17° |
| 2026-04-21 20:18 | 49.69090 | 2.84243 | 23195 ft | 384 kts | 16° |
| 2026-04-21 20:19 | 49.71605 | 2.85688 | 23818 ft | 388 kts | 16° |
| 2026-04-21 20:19 | 49.74141 | 2.87139 | 24427 ft | 391 kts | 15° |
| 2026-04-21 20:19 | 49.76702 | 2.88604 | 25027 ft | 393 kts | 15° |
| 2026-04-21 20:19 | 49.79280 | 2.90079 | 25609 ft | 397 kts | 15° |
| 2026-04-21 20:20 | 49.81882 | 2.91566 | 26140 ft | 400 kts | 15° |
| 2026-04-21 20:20 | 49.84501 | 2.93064 | 26191 ft | 401 kts | 14° |
| 2026-04-21 20:20 | 49.87110 | 2.94562 | 26203 ft | 399 kts | 15° |
| 2026-04-21 20:20 | 49.89713 | 2.96057 | 26213 ft | 400 kts | 15° |
| 2026-04-21 20:21 | 49.92324 | 2.97558 | 26218 ft | 400 kts | 15° |
| 2026-04-21 20:21 | 49.94939 | 2.99061 | 26238 ft | 403 kts | 15° |
| 2026-04-21 20:21 | 49.97597 | 3.00588 | 26577 ft | 409 kts | 15° |
| 2026-04-21 20:21 | 50.00254 | 3.02121 | 27313 ft | 406 kts | 15° |
| 2026-04-21 20:22 | 50.02899 | 3.03650 | 27949 ft | 407 kts | 15° |
| 2026-04-21 20:22 | 50.08271 | 3.06754 | 28845 ft | 416 kts | 16° |
| 2026-04-21 20:22 | 50.10989 | 3.08329 | 29311 ft | 418 kts | 16° |
| 2026-04-21 20:23 | 50.13726 | 3.09918 | 29776 ft | 421 kts | 15° |
| 2026-04-21 20:23 | 50.16479 | 3.11518 | 30209 ft | 423 kts | 15° |
| 2026-04-21 20:23 | 50.19248 | 3.13128 | 30604 ft | 426 kts | 15° |
| 2026-04-21 20:23 | 50.22033 | 3.14748 | 30971 ft | 429 kts | 15° |
| 2026-04-21 20:24 | 50.24822 | 3.16493 | 31274 ft | 435 kts | 18° |
| 2026-04-21 20:24 | 50.27597 | 3.18417 | 31589 ft | 438 kts | 19° |
| 2026-04-21 20:24 | 50.30371 | 3.20406 | 32011 ft | 439 kts | 20° |
| 2026-04-21 20:24 | 50.33139 | 3.22391 | 32514 ft | 436 kts | 20° |
| 2026-04-21 20:25 | 50.35903 | 3.24350 | 32971 ft | 435 kts | 19° |
| 2026-04-21 20:25 | 50.38661 | 3.26286 | 33366 ft | 435 kts | 19° |
| 2026-04-21 20:25 | 50.41429 | 3.28238 | 33727 ft | 437 kts | 20° |
| 2026-04-21 20:25 | 50.44122 | 3.30313 | 34092 ft | 438 kts | 22° |
| 2026-04-21 20:26 | 50.46828 | 3.32487 | 34504 ft | 436 kts | 22° |
| 2026-04-21 20:26 | 50.49534 | 3.34649 | 34812 ft | 437 kts | 22° |
| 2026-04-21 20:26 | 50.52260 | 3.36775 | 35072 ft | 438 kts | 21° |
| 2026-04-21 20:26 | 50.55042 | 3.38761 | 35368 ft | 438 kts | 19° |
| 2026-04-21 20:27 | 50.57835 | 3.40661 | 35733 ft | 437 kts | 19° |
| 2026-04-21 20:27 | 50.60631 | 3.42538 | 36061 ft | 437 kts | 19° |
| 2026-04-21 20:27 | 50.63428 | 3.44421 | 36298 ft | 439 kts | 20° |
| 2026-04-21 20:27 | 50.66234 | 3.46328 | 36503 ft | 441 kts | 20° |
| 2026-04-21 20:28 | 50.69056 | 3.48261 | 36799 ft | 440 kts | 20° |
| 2026-04-21 20:28 | 50.71846 | 3.50186 | 37228 ft | 436 kts | 20° |
| 2026-04-21 20:28 | 50.74613 | 3.52103 | 37633 ft | 433 kts | 20° |
| 2026-04-21 20:28 | 50.77371 | 3.54014 | 37939 ft | 432 kts | 21° |
| 2026-04-21 20:29 | 50.80132 | 3.55929 | 38116 ft | 435 kts | 21° |
| 2026-04-21 20:29 | 50.82909 | 3.57856 | 38245 ft | 438 kts | 21° |
| 2026-04-21 20:29 | 50.85697 | 3.59794 | 38478 ft | 438 kts | 21° |
| 2026-04-21 20:29 | 50.88480 | 3.61731 | 38778 ft | 437 kts | 21° |
| 2026-04-21 20:30 | 50.91261 | 3.63670 | 38986 ft | 437 kts | 21° |
| 2026-04-21 20:30 | 50.94046 | 3.65638 | 39149 ft | 439 kts | 22° |
| 2026-04-21 20:30 | 50.96829 | 3.67639 | 39324 ft | 440 kts | 22° |
| 2026-04-21 20:30 | 50.99614 | 3.69655 | 39540 ft | 440 kts | 22° |
| 2026-04-21 20:31 | 51.02397 | 3.71677 | 39767 ft | 440 kts | 22° |
| 2026-04-21 20:31 | 51.05148 | 3.73672 | 39954 ft | 440 kts | 22° |
| 2026-04-21 20:31 | 51.07937 | 3.75692 | 40140 ft | 441 kts | 22° |
| 2026-04-21 20:31 | 51.10731 | 3.77716 | 40275 ft | 443 kts | 22° |
| 2026-04-21 20:32 | 51.16361 | 3.81801 | 40281 ft | 444 kts | 22° |
| 2026-04-21 20:32 | 51.21954 | 3.85871 | 40283 ft | 440 kts | 22° |
| 2026-04-21 20:33 | 51.27500 | 3.89915 | 40289 ft | 437 kts | 23° |
| 2026-04-21 20:33 | 51.33013 | 3.93943 | 40293 ft | 434 kts | 23° |
| 2026-04-21 20:34 | 51.38502 | 3.97965 | 40296 ft | 434 kts | 23° |
| 2026-04-21 20:34 | 51.43992 | 4.01998 | 40294 ft | 435 kts | 23° |
| 2026-04-21 20:35 | 51.49500 | 4.06057 | 40303 ft | 437 kts | 23° |
| 2026-04-21 20:35 | 51.55032 | 4.10160 | 40301 ft | 439 kts | 24° |
| 2026-04-21 20:36 | 51.60595 | 4.14301 | 40303 ft | 442 kts | 24° |
| 2026-04-21 20:36 | 51.66185 | 4.18473 | 40308 ft | 443 kts | 24° |
| 2026-04-21 20:37 | 51.71785 | 4.22662 | 40306 ft | 444 kts | 24° |
| 2026-04-21 20:37 | 51.77401 | 4.26869 | 40306 ft | 445 kts | 24° |
| 2026-04-21 20:38 | 51.83008 | 4.31066 | 40307 ft | 444 kts | 24° |
| 2026-04-21 20:38 | 51.88604 | 4.35267 | 40310 ft | 443 kts | 24° |
| 2026-04-21 20:39 | 51.94186 | 4.39471 | 40316 ft | 442 kts | 24° |
| 2026-04-21 20:39 | 51.99753 | 4.43676 | 40321 ft | 441 kts | 24° |
| 2026-04-21 20:40 | 52.05312 | 4.47886 | 40323 ft | 440 kts | 24° |
| 2026-04-21 20:40 | 52.10854 | 4.52096 | 40319 ft | 440 kts | 24° |
| 2026-04-21 20:41 | 52.16354 | 4.56285 | 40338 ft | 439 kts | 24° |
| 2026-04-21 20:41 | 52.21879 | 4.60504 | 40343 ft | 439 kts | 24° |
| 2026-04-21 20:42 | 52.27415 | 4.64752 | 40374 ft | 442 kts | 24° |
| 2026-04-21 20:42 | 52.30196 | 4.66899 | 40536 ft | 442 kts | 24° |
| 2026-04-21 20:42 | 52.32973 | 4.69047 | 40773 ft | 441 kts | 24° |
| 2026-04-21 20:43 | 52.35748 | 4.71197 | 40969 ft | 442 kts | 24° |
| 2026-04-21 20:43 | 52.38529 | 4.73353 | 41084 ft | 443 kts | 24° |
| 2026-04-21 20:43 | 52.41322 | 4.75521 | 41244 ft | 444 kts | 24° |
| 2026-04-21 20:43 | 52.44112 | 4.77689 | 41343 ft | 445 kts | 24° |
| 2026-04-21 20:44 | 52.49716 | 4.82052 | 41346 ft | 445 kts | 25° |
| 2026-04-21 20:44 | 52.54850 | 4.87644 | 41350 ft | 443 kts | 41° |
| 2026-04-21 20:45 | 52.58882 | 4.95268 | 41360 ft | 442 kts | 51° |
| 2026-04-21 20:45 | 52.62622 | 5.03302 | 41364 ft | 441 kts | 51° |
| 2026-04-21 20:46 | 52.66399 | 5.11270 | 41358 ft | 442 kts | 50° |
| 2026-04-21 20:46 | 52.70201 | 5.19247 | 41364 ft | 443 kts | 50° |
| 2026-04-21 20:47 | 52.73811 | 5.27493 | 41354 ft | 446 kts | 59° |
| 2026-04-21 20:47 | 52.76181 | 5.36984 | 41360 ft | 449 kts | 69° |
| 2026-04-21 20:48 | 52.78219 | 5.46748 | 41357 ft | 451 kts | 69° |
| 2026-04-21 20:48 | 52.80270 | 5.56542 | 41357 ft | 452 kts | 69° |
| 2026-04-21 20:49 | 52.82352 | 5.66353 | 41360 ft | 453 kts | 69° |
| 2026-04-21 20:49 | 52.84446 | 5.76189 | 41358 ft | 453 kts | 69° |
| 2026-04-21 20:50 | 52.86532 | 5.86028 | 41368 ft | 453 kts | 69° |
| 2026-04-21 20:50 | 52.88608 | 5.95869 | 41367 ft | 453 kts | 69° |
| 2026-04-21 20:51 | 52.90676 | 6.05724 | 41371 ft | 452 kts | 69° |
| 2026-04-21 20:51 | 52.92728 | 6.15555 | 41369 ft | 451 kts | 69° |
| 2026-04-21 20:52 | 52.94755 | 6.25311 | 41364 ft | 450 kts | 69° |
| 2026-04-21 20:52 | 52.96786 | 6.35136 | 41362 ft | 450 kts | 69° |
| 2026-04-21 20:53 | 52.98802 | 6.44937 | 41365 ft | 449 kts | 69° |
| 2026-04-21 20:53 | 53.00808 | 6.54738 | 41372 ft | 448 kts | 70° |
| 2026-04-21 20:54 | 53.02804 | 6.64535 | 41380 ft | 448 kts | 70° |
| 2026-04-21 20:54 | 53.04789 | 6.74328 | 41375 ft | 447 kts | 70° |
| 2026-04-21 20:55 | 53.06766 | 6.84131 | 41374 ft | 447 kts | 70° |
| 2026-04-21 20:55 | 53.08735 | 6.93945 | 41364 ft | 448 kts | 70° |
| 2026-04-21 20:56 | 53.10698 | 7.03780 | 41365 ft | 448 kts | 70° |
| 2026-04-21 20:56 | 53.12654 | 7.13616 | 41368 ft | 448 kts | 70° |
| 2026-04-21 20:57 | 53.14594 | 7.23480 | 41370 ft | 448 kts | 70° |
| 2026-04-21 20:57 | 53.16509 | 7.33351 | 41367 ft | 448 kts | 70° |
| 2026-04-21 20:58 | 53.18427 | 7.43233 | 41364 ft | 448 kts | 70° |
| 2026-04-21 20:58 | 53.20363 | 7.53175 | 40730 ft | 456 kts | 70° |
| 2026-04-21 20:59 | 53.21335 | 7.58195 | 40138 ft | 453 kts | 70° |
| 2026-04-21 20:59 | 53.22298 | 7.63186 | 39490 ft | 451 kts | 71° |
| 2026-04-21 20:59 | 53.23260 | 7.68156 | 38818 ft | 449 kts | 70° |
| 2026-04-21 20:59 | 53.24216 | 7.73111 | 38129 ft | 448 kts | 71° |
| 2026-04-21 21:00 | 53.25165 | 7.78040 | 37438 ft | 445 kts | 71° |
| 2026-04-21 21:00 | 53.26104 | 7.82926 | 36981 ft | 437 kts | 71° |
| 2026-04-21 21:00 | 53.27023 | 7.87719 | 36113 ft | 436 kts | 71° |
| 2026-04-21 21:00 | 53.27951 | 7.92572 | 35117 ft | 437 kts | 72° |
| 2026-04-21 21:01 | 53.28863 | 7.97359 | 34280 ft | 429 kts | 72° |
| 2026-04-21 21:01 | 53.29755 | 8.02052 | 33621 ft | 418 kts | 72° |
| 2026-04-21 21:01 | 53.30629 | 8.06665 | 33003 ft | 413 kts | 72° |
| 2026-04-21 21:01 | 53.31491 | 8.11214 | 32392 ft | 408 kts | 72° |
| 2026-04-21 21:02 | 53.32328 | 8.15647 | 31799 ft | 403 kts | 72° |
| 2026-04-21 21:02 | 53.32923 | 8.18640 | 31394 ft | 399 kts | 71° |
| 2026-04-21 21:02 | 53.34223 | 8.24401 | 30604 ft | 393 kts | 69° |
| 2026-04-21 21:02 | 53.35206 | 8.28559 | 30033 ft | 387 kts | 69° |
| 2026-04-21 21:03 | 53.36189 | 8.32725 | 29432 ft | 381 kts | 69° |
| 2026-04-21 21:03 | 53.37146 | 8.36829 | 28831 ft | 376 kts | 69° |
| 2026-04-21 21:03 | 53.38082 | 8.40883 | 28244 ft | 371 kts | 69° |
| 2026-04-21 21:03 | 53.38999 | 8.44886 | 27665 ft | 366 kts | 69° |
| 2026-04-21 21:04 | 53.39610 | 8.47563 | 27268 ft | 363 kts | 69° |
| 2026-04-21 21:04 | 53.40519 | 8.51484 | 26685 ft | 359 kts | 68° |
| 2026-04-21 21:04 | 53.41493 | 8.55251 | 26117 ft | 355 kts | 66° |
| 2026-04-21 21:04 | 53.42526 | 8.59044 | 25536 ft | 351 kts | 66° |
| 2026-04-21 21:05 | 53.43528 | 8.62695 | 24980 ft | 347 kts | 66° |
| 2026-04-21 21:05 | 53.44528 | 8.66359 | 24419 ft | 344 kts | 66° |
| 2026-04-21 21:05 | 53.45510 | 8.69983 | 23863 ft | 340 kts | 66° |
| 2026-04-21 21:05 | 53.46481 | 8.73590 | 23309 ft | 337 kts | 66° |
| 2026-04-21 21:06 | 53.47438 | 8.77159 | 22764 ft | 334 kts | 66° |
| 2026-04-21 21:06 | 53.48381 | 8.80691 | 22207 ft | 331 kts | 66° |
| 2026-04-21 21:06 | 53.49318 | 8.84206 | 21672 ft | 328 kts | 66° |
| 2026-04-21 21:06 | 53.50245 | 8.87684 | 21131 ft | 325 kts | 66° |
| 2026-04-21 21:07 | 53.51165 | 8.91148 | 20512 ft | 325 kts | 66° |
| 2026-04-21 21:07 | 53.52084 | 8.94612 | 19880 ft | 325 kts | 66° |
| 2026-04-21 21:07 | 53.53077 | 8.98024 | 19275 ft | 324 kts | 59° |
| 2026-04-21 21:07 | 53.54417 | 9.01056 | 18739 ft | 322 kts | 51° |
| 2026-04-21 21:08 | 53.55993 | 9.03729 | 18205 ft | 322 kts | 41° |
| 2026-04-21 21:08 | 53.57779 | 9.05980 | 17648 ft | 320 kts | 38° |
| 2026-04-21 21:08 | 53.59593 | 9.08120 | 17028 ft | 316 kts | 37° |
| 2026-04-21 21:08 | 53.61398 | 9.10226 | 16405 ft | 315 kts | 37° |
| 2026-04-21 21:09 | 53.63197 | 9.12334 | 15784 ft | 314 kts | 37° |
| 2026-04-21 21:09 | 53.64982 | 9.14441 | 15157 ft | 313 kts | 37° |
| 2026-04-21 21:09 | 53.66760 | 9.16551 | 14532 ft | 311 kts | 37° |
| 2026-04-21 21:09 | 53.68519 | 9.18650 | 13908 ft | 309 kts | 37° |
| 2026-04-21 21:10 | 53.70265 | 9.20737 | 13282 ft | 307 kts | 37° |
| 2026-04-21 21:10 | 53.72004 | 9.22819 | 12661 ft | 305 kts | 37° |
| 2026-04-21 21:10 | 53.73732 | 9.24890 | 12029 ft | 304 kts | 37° |
| 2026-04-21 21:10 | 53.75447 | 9.26947 | 11407 ft | 300 kts | 37° |
| 2026-04-21 21:11 | 53.77127 | 9.28966 | 10866 ft | 292 kts | 37° |
| 2026-04-21 21:11 | 53.78756 | 9.30926 | 10418 ft | 282 kts | 37° |
| 2026-04-21 21:11 | 53.80321 | 9.32808 | 10089 ft | 270 kts | 37° |
| 2026-04-21 21:11 | 53.81746 | 9.34752 | 9758 ft | 258 kts | 48° |
| 2026-04-21 21:12 | 53.82910 | 9.37049 | 9396 ft | 257 kts | 52° |
| 2026-04-21 21:12 | 53.84011 | 9.39403 | 9020 ft | 252 kts | 53° |
| 2026-04-21 21:12 | 53.85091 | 9.41718 | 8644 ft | 247 kts | 53° |
| 2026-04-21 21:12 | 53.86155 | 9.43971 | 8263 ft | 243 kts | 52° |
| 2026-04-21 21:13 | 53.87206 | 9.46169 | 7881 ft | 238 kts | 52° |
| 2026-04-21 21:13 | 53.88238 | 9.48316 | 7511 ft | 233 kts | 52° |
| 2026-04-21 21:13 | 53.89250 | 9.50417 | 7144 ft | 225 kts | 52° |
| 2026-04-21 21:13 | 53.90221 | 9.52430 | 6829 ft | 214 kts | 53° |
| 2026-04-21 21:14 | 53.91136 | 9.54327 | 6562 ft | 203 kts | 53° |
| 2026-04-21 21:14 | 53.92101 | 9.56035 | 6290 ft | 202 kts | 34° |
| 2026-04-21 21:14 | 53.93466 | 9.56640 | 6061 ft | 210 kts | 3° |
| 2026-04-21 21:14 | 53.94912 | 9.55989 | 5822 ft | 221 kts | 339° |
| 2026-04-21 21:15 | 53.96288 | 9.54806 | 5583 ft | 223 kts | 336° |
| 2026-04-21 21:15 | 53.97709 | 9.54021 | 5297 ft | 213 kts | 7° |
| 2026-04-21 21:15 | 53.99010 | 9.54824 | 5059 ft | 194 kts | 41° |
| 2026-04-21 21:15 | 53.99905 | 9.56453 | 4808 ft | 186 kts | 60° |
| 2026-04-21 21:16 | 54.00503 | 9.58363 | 4576 ft | 183 kts | 63° |
| 2026-04-21 21:16 | 54.01088 | 9.60285 | 4306 ft | 182 kts | 63° |
| 2026-04-21 21:16 | 54.01656 | 9.62180 | 4089 ft | 177 kts | 68° |
| 2026-04-21 21:16 | 54.01771 | 9.64223 | 4044 ft | 179 kts | 99° |
| 2026-04-21 21:17 | 54.01182 | 9.66083 | 4000 ft | 182 kts | 133° |
| 2026-04-21 21:17 | 54.00097 | 9.67238 | 4018 ft | 188 kts | 147° |
| 2026-04-21 21:17 | 53.98897 | 9.68317 | 4023 ft | 200 kts | 148° |
| 2026-04-21 21:17 | 53.97662 | 9.69410 | 3989 ft | 199 kts | 148° |
| 2026-04-21 21:18 | 53.96442 | 9.70484 | 3985 ft | 196 kts | 148° |
| 2026-04-21 21:18 | 53.95237 | 9.71543 | 4018 ft | 195 kts | 148° |
| 2026-04-21 21:18 | 53.94027 | 9.72607 | 4003 ft | 197 kts | 148° |
| 2026-04-21 21:18 | 53.92814 | 9.73672 | 3993 ft | 196 kts | 148° |
| 2026-04-21 21:19 | 53.91606 | 9.74731 | 4001 ft | 195 kts | 148° |
| 2026-04-21 21:19 | 53.90415 | 9.75816 | 4008 ft | 194 kts | 147° |
| 2026-04-21 21:19 | 53.89221 | 9.76907 | 4006 ft | 195 kts | 148° |
| 2026-04-21 21:19 | 53.88028 | 9.77964 | 3988 ft | 190 kts | 148° |
| 2026-04-21 21:20 | 53.86876 | 9.78971 | 3983 ft | 183 kts | 148° |
| 2026-04-21 21:20 | 53.85739 | 9.79959 | 3995 ft | 185 kts | 148° |
| 2026-04-21 21:20 | 53.84584 | 9.80962 | 4006 ft | 189 kts | 148° |
| 2026-04-21 21:20 | 53.83412 | 9.81975 | 3935 ft | 190 kts | 149° |
| 2026-04-21 21:21 | 53.82241 | 9.82983 | 3704 ft | 186 kts | 148° |
| 2026-04-21 21:21 | 53.81107 | 9.83964 | 3452 ft | 180 kts | 148° |
| 2026-04-21 21:21 | 53.80002 | 9.84922 | 3235 ft | 178 kts | 148° |
| 2026-04-21 21:21 | 53.78904 | 9.85870 | 2997 ft | 175 kts | 148° |
| 2026-04-21 21:22 | 53.77838 | 9.86789 | 2762 ft | 168 kts | 148° |
| 2026-04-21 21:22 | 53.76818 | 9.87673 | 2550 ft | 165 kts | 148° |
| 2026-04-21 21:22 | 53.75799 | 9.88555 | 2319 ft | 164 kts | 149° |
| 2026-04-21 21:22 | 53.74771 | 9.89446 | 2112 ft | 169 kts | 150° |
| 2026-04-21 21:23 | 53.73737 | 9.90340 | 1875 ft | 163 kts | 150° |
| 2026-04-21 21:23 | 53.72783 | 9.91164 | 1685 ft | 148 kts | 150° |
| 2026-04-21 21:23 | 53.71900 | 9.91927 | 1470 ft | 137 kts | 150° |
| 2026-04-21 21:23 | 53.71090 | 9.92630 | 1292 ft | 126 kts | 151° |
| 2026-04-21 21:24 | 53.70309 | 9.93306 | 1158 ft | 128 kts | 151° |
| 2026-04-21 21:24 | 53.69509 | 9.93999 | 999 ft | 130 kts | 151° |
| 2026-04-21 21:24 | 53.68711 | 9.94691 | 802 ft | 127 kts | 150° |
| 2026-04-21 21:24 | 53.67926 | 9.95372 | 643 ft | 128 kts | 150° |
| 2026-04-21 21:25 | 53.67118 | 9.96070 | 473 ft | 134 kts | 152° |
| 2026-04-21 21:25 | 53.66274 | 9.96800 | 310 ft | 137 kts | 151° |
| 2026-04-21 21:25 | 53.65439 | 9.97521 | 115 ft | 131 kts | 151° |
| 2026-04-21 21:25 | 53.64701 | 9.98162 | 57 ft | 98 kts | 153° |
| 2026-04-21 21:26 | 53.64278 | 9.98524 | 54 ft | 46 kts | 153° |
| 2026-04-21 21:26 | 53.64017 | 9.98784 | 50 ft | 42 kts | 137° |
| 2026-04-21 21:26 | 53.63880 | 9.99074 | 46 ft | 25 kts | 126° |
| 2026-04-21 21:26 | 53.63783 | 9.99297 | 45 ft | 23 kts | 126° |
| 2026-04-21 21:27 | 53.63691 | 9.99512 | 46 ft | 22 kts | 125° |
| 2026-04-21 21:27 | 53.63603 | 9.99723 | 48 ft | 22 kts | 127° |
| 2026-04-21 21:27 | 53.63515 | 9.99923 | 50 ft | 21 kts | 126° |
| 2026-04-21 21:27 | 53.63447 | 10.00083 | 47 ft | 15 kts | 122° |
| 2026-04-21 21:28 | 53.63403 | 10.00175 | 46 ft | 7 kts | 144° |
| 2026-04-21 21:28 | 53.63355 | 10.00196 | 45 ft | 7 kts | 174° |
| 2026-04-21 21:28 | 53.63292 | 10.00224 | 47 ft | 3 kts | 117° |
| 2026-04-21 21:29 | 53.63289 | 10.00259 | 47 ft | 3 kts | 90° |
| 2026-04-21 21:29 | 53.63291 | 10.00293 | 47 ft | 3 kts | 88° |
| 2026-04-21 21:29 | 53.63291 | 10.00326 | 47 ft | 3 kts | 88° |
| 2026-04-21 21:29 | 53.63292 | 10.00344 | 47 ft | 0 kts | 86° |
| 2026-04-21 21:30 | 53.63292 | 10.00346 | 47 ft | 1 kts | 86° |
| 2026-04-21 21:30 | 53.63292 | 10.00353 | 47 ft | 0 kts | 88° |
| 2026-04-21 21:30 | 53.63292 | 10.00356 | 47 ft | 0 kts | 87° |